sensor_id;sensor_type;location;lat;lon;timestamp;temperature;humidity
20728;DHT22;10525;50.154;8.198;2022-11-15T00:01:07;8.80;99.90
20728;DHT22;10525;50.154;8.198;2022-11-15T00:03:34;8.70;99.90
20728;DHT22;10525;50.154;8.198;2022-11-15T00:06:02;8.70;99.90
20728;DHT22;10525;50.154;8.198;2022-11-15T00:08:29;8.70;99.90
20728;DHT22;10525;50.154;8.198;2022-11-15T00:10:57;8.70;99.90
20728;DHT22;10525;50.154;8.198;2022-11-15T00:13:24;8.70;99.90
20728;DHT22;10525;50.154;8.198;2022-11-15T00:15:53;8.70;99.90
20728;DHT22;10525;50.154;8.198;2022-11-15T00:18:22;8.70;99.90
20728;DHT22;10525;50.154;8.198;2022-11-15T00:20:49;8.80;99.90
20728;DHT22;10525;50.154;8.198;2022-11-15T00:23:16;8.80;99.90
20728;DHT22;10525;50.154;8.198;2022-11-15T00:25:42;8.80;99.90
20728;DHT22;10525;50.154;8.198;2022-11-15T00:28:09;8.80;99.90
20728;DHT22;10525;50.154;8.198;2022-11-15T00:30:36;8.80;99.90
20728;DHT22;10525;50.154;8.198;2022-11-15T00:33:05;8.80;99.90
20728;DHT22;10525;50.154;8.198;2022-11-15T00:35:32;8.80;99.90
20728;DHT22;10525;50.154;8.198;2022-11-15T00:37:59;8.80;99.90
20728;DHT22;10525;50.154;8.198;2022-11-15T00:40:26;8.80;99.90
20728;DHT22;10525;50.154;8.198;2022-11-15T00:42:53;8.80;99.90
20728;DHT22;10525;50.154;8.198;2022-11-15T00:45:20;8.70;99.90
20728;DHT22;10525;50.154;8.198;2022-11-15T00:47:47;8.70;99.90
20728;DHT22;10525;50.154;8.198;2022-11-15T00:50:15;8.70;99.90
20728;DHT22;10525;50.154;8.198;2022-11-15T00:52:42;8.80;99.90
20728;DHT22;10525;50.154;8.198;2022-11-15T00:55:12;8.80;99.90
20728;DHT22;10525;50.154;8.198;2022-11-15T00:57:40;8.80;99.90
20728;DHT22;10525;50.154;8.198;2022-11-15T01:00:07;8.90;99.90
20728;DHT22;10525;50.154;8.198;2022-11-15T01:02:34;8.90;99.90
20728;DHT22;10525;50.154;8.198;2022-11-15T01:05:01;8.90;99.90
20728;DHT22;10525;50.154;8.198;2022-11-15T01:07:29;9.00;99.90
20728;DHT22;10525;50.154;8.198;2022-11-15T01:09:56;9.10;99.90
20728;DHT22;10525;50.154;8.198;2022-11-15T01:12:22;9.20;99.90
20728;DHT22;10525;50.154;8.198;2022-11-15T01:14:49;9.20;99.90
20728;DHT22;10525;50.154;8.198;2022-11-15T01:17:16;9.20;99.90
20728;DHT22;10525;50.154;8.198;2022-11-15T01:19:43;9.10;99.90
20728;DHT22;10525;50.154;8.198;2022-11-15T01:22:10;9.10;99.90
20728;DHT22;10525;50.154;8.198;2022-11-15T01:24:38;9.10;99.90
20728;DHT22;10525;50.154;8.198;2022-11-15T01:27:04;9.10;99.90
20728;DHT22;10525;50.154;8.198;2022-11-15T01:29:31;9.10;99.90
20728;DHT22;10525;50.154;8.198;2022-11-15T01:31:58;9.20;99.90
20728;DHT22;10525;50.154;8.198;2022-11-15T01:34:24;9.30;99.90
20728;DHT22;10525;50.154;8.198;2022-11-15T01:36:51;9.30;99.90
20728;DHT22;10525;50.154;8.198;2022-11-15T01:39:18;9.30;99.90
20728;DHT22;10525;50.154;8.198;2022-11-15T01:41:46;9.30;99.90
20728;DHT22;10525;50.154;8.198;2022-11-15T01:44:39;9.30;99.90
20728;DHT22;10525;50.154;8.198;2022-11-15T01:47:10;9.30;99.90
20728;DHT22;10525;50.154;8.198;2022-11-15T01:49:43;9.30;99.90
20728;DHT22;10525;50.154;8.198;2022-11-15T01:52:14;9.40;99.90
20728;DHT22;10525;50.154;8.198;2022-11-15T01:54:43;9.40;99.90
20728;DHT22;10525;50.154;8.198;2022-11-15T01:57:12;9.40;99.90
20728;DHT22;10525;50.154;8.198;2022-11-15T01:59:41;9.40;99.90
20728;DHT22;10525;50.154;8.198;2022-11-15T02:02:09;9.40;99.90
20728;DHT22;10525;50.154;8.198;2022-11-15T02:04:39;9.40;99.90
20728;DHT22;10525;50.154;8.198;2022-11-15T02:07:08;9.50;99.90
20728;DHT22;10525;50.154;8.198;2022-11-15T02:09:36;9.40;99.90
20728;DHT22;10525;50.154;8.198;2022-11-15T02:12:04;9.40;99.90
20728;DHT22;10525;50.154;8.198;2022-11-15T02:14:33;9.40;99.90
20728;DHT22;10525;50.154;8.198;2022-11-15T02:17:08;9.40;99.90
20728;DHT22;10525;50.154;8.198;2022-11-15T02:23:04;9.30;99.90
20728;DHT22;10525;50.154;8.198;2022-11-15T02:25:39;9.30;99.90
20728;DHT22;10525;50.154;8.198;2022-11-15T02:28:20;9.20;99.90
20728;DHT22;10525;50.154;8.198;2022-11-15T02:30:56;9.20;99.90
20728;DHT22;10525;50.154;8.198;2022-11-15T02:33:31;9.20;99.90
20728;DHT22;10525;50.154;8.198;2022-11-15T02:36:02;9.20;99.90
20728;DHT22;10525;50.154;8.198;2022-11-15T02:38:38;9.20;99.90
20728;DHT22;10525;50.154;8.198;2022-11-15T02:41:10;9.30;99.90
20728;DHT22;10525;50.154;8.198;2022-11-15T02:43:42;9.30;99.90
20728;DHT22;10525;50.154;8.198;2022-11-15T02:46:31;9.40;99.90
20728;DHT22;10525;50.154;8.198;2022-11-15T02:49:17;9.40;99.90
20728;DHT22;10525;50.154;8.198;2022-11-15T02:51:46;9.50;99.90
20728;DHT22;10525;50.154;8.198;2022-11-15T02:54:15;9.60;99.90
20728;DHT22;10525;50.154;8.198;2022-11-15T02:56:45;9.70;99.90
20728;DHT22;10525;50.154;8.198;2022-11-15T02:59:29;9.70;99.90
20728;DHT22;10525;50.154;8.198;2022-11-15T03:02:11;9.70;99.90
20728;DHT22;10525;50.154;8.198;2022-11-15T03:04:45;9.80;99.90
20728;DHT22;10525;50.154;8.198;2022-11-15T03:07:19;9.80;99.90
20728;DHT22;10525;50.154;8.198;2022-11-15T03:09:54;9.90;99.90
20728;DHT22;10525;50.154;8.198;2022-11-15T03:12:26;9.90;99.90
20728;DHT22;10525;50.154;8.198;2022-11-15T03:14:56;9.90;99.90
20728;DHT22;10525;50.154;8.198;2022-11-15T03:17:29;9.80;99.90
20728;DHT22;10525;50.154;8.198;2022-11-15T03:19:58;9.80;99.90
20728;DHT22;10525;50.154;8.198;2022-11-15T03:22:27;9.70;99.90
20728;DHT22;10525;50.154;8.198;2022-11-15T03:24:57;9.70;99.90
20728;DHT22;10525;50.154;8.198;2022-11-15T03:27:28;9.60;99.90
20728;DHT22;10525;50.154;8.198;2022-11-15T03:29:59;9.60;99.90
20728;DHT22;10525;50.154;8.198;2022-11-15T03:32:30;9.70;99.90
20728;DHT22;10525;50.154;8.198;2022-11-15T03:35:00;9.60;99.90
20728;DHT22;10525;50.154;8.198;2022-11-15T03:37:33;9.50;99.90
20728;DHT22;10525;50.154;8.198;2022-11-15T03:40:01;9.40;99.90
20728;DHT22;10525;50.154;8.198;2022-11-15T03:42:32;9.30;99.90
20728;DHT22;10525;50.154;8.198;2022-11-15T03:45:06;9.20;99.90
20728;DHT22;10525;50.154;8.198;2022-11-15T03:47:40;9.20;99.90
20728;DHT22;10525;50.154;8.198;2022-11-15T03:50:12;9.10;99.90
20728;DHT22;10525;50.154;8.198;2022-11-15T03:52:40;9.10;99.90
20728;DHT22;10525;50.154;8.198;2022-11-15T03:55:11;9.10;99.90
20728;DHT22;10525;50.154;8.198;2022-11-15T03:57:39;9.10;99.90
20728;DHT22;10525;50.154;8.198;2022-11-15T04:00:07;9.10;99.90
20728;DHT22;10525;50.154;8.198;2022-11-15T04:02:34;9.10;99.90
20728;DHT22;10525;50.154;8.198;2022-11-15T04:05:02;9.10;99.90
20728;DHT22;10525;50.154;8.198;2022-11-15T04:07:29;9.10;99.90
20728;DHT22;10525;50.154;8.198;2022-11-15T04:09:56;9.10;99.90
20728;DHT22;10525;50.154;8.198;2022-11-15T04:12:29;9.10;99.90
20728;DHT22;10525;50.154;8.198;2022-11-15T04:15:03;9.10;99.90
20728;DHT22;10525;50.154;8.198;2022-11-15T04:17:38;9.00;99.90
20728;DHT22;10525;50.154;8.198;2022-11-15T04:20:09;9.00;99.90
20728;DHT22;10525;50.154;8.198;2022-11-15T04:22:54;8.90;99.90
20728;DHT22;10525;50.154;8.198;2022-11-15T04:25:38;8.80;99.90
20728;DHT22;10525;50.154;8.198;2022-11-15T04:28:05;8.70;99.90
20728;DHT22;10525;50.154;8.198;2022-11-15T04:30:32;8.80;99.90
20728;DHT22;10525;50.154;8.198;2022-11-15T04:32:59;8.70;99.90
20728;DHT22;10525;50.154;8.198;2022-11-15T04:35:27;8.70;99.90
20728;DHT22;10525;50.154;8.198;2022-11-15T04:37:56;8.70;99.90
20728;DHT22;10525;50.154;8.198;2022-11-15T04:40:22;8.60;99.90
20728;DHT22;10525;50.154;8.198;2022-11-15T04:42:49;8.70;99.90
20728;DHT22;10525;50.154;8.198;2022-11-15T04:45:15;8.70;99.90
20728;DHT22;10525;50.154;8.198;2022-11-15T04:47:43;8.70;99.90
20728;DHT22;10525;50.154;8.198;2022-11-15T04:50:11;8.90;99.90
20728;DHT22;10525;50.154;8.198;2022-11-15T04:52:40;8.90;99.90
20728;DHT22;10525;50.154;8.198;2022-11-15T04:55:08;9.00;99.90
20728;DHT22;10525;50.154;8.198;2022-11-15T04:57:34;9.00;99.90
20728;DHT22;10525;50.154;8.198;2022-11-15T05:00:02;9.00;99.90
20728;DHT22;10525;50.154;8.198;2022-11-15T05:02:29;8.90;99.90
20728;DHT22;10525;50.154;8.198;2022-11-15T05:05:16;8.90;99.90
20728;DHT22;10525;50.154;8.198;2022-11-15T05:07:43;8.90;99.90
20728;DHT22;10525;50.154;8.198;2022-11-15T05:10:10;8.90;99.90
20728;DHT22;10525;50.154;8.198;2022-11-15T05:12:37;8.90;99.90
20728;DHT22;10525;50.154;8.198;2022-11-15T05:15:04;8.90;99.90
20728;DHT22;10525;50.154;8.198;2022-11-15T05:17:31;8.90;99.90
20728;DHT22;10525;50.154;8.198;2022-11-15T05:19:58;9.00;99.90
20728;DHT22;10525;50.154;8.198;2022-11-15T05:22:25;9.00;99.90
20728;DHT22;10525;50.154;8.198;2022-11-15T05:24:53;9.00;99.90
20728;DHT22;10525;50.154;8.198;2022-11-15T05:27:19;9.10;99.90
20728;DHT22;10525;50.154;8.198;2022-11-15T05:29:46;9.10;99.90
20728;DHT22;10525;50.154;8.198;2022-11-15T05:32:13;9.10;99.90
20728;DHT22;10525;50.154;8.198;2022-11-15T05:34:40;9.10;99.90
20728;DHT22;10525;50.154;8.198;2022-11-15T05:37:07;9.20;99.90
20728;DHT22;10525;50.154;8.198;2022-11-15T05:39:34;9.20;99.90
20728;DHT22;10525;50.154;8.198;2022-11-15T05:42:07;9.30;99.90
20728;DHT22;10525;50.154;8.198;2022-11-15T05:44:36;9.40;99.90
20728;DHT22;10525;50.154;8.198;2022-11-15T05:47:04;9.40;99.90
20728;DHT22;10525;50.154;8.198;2022-11-15T05:49:34;9.40;99.90
20728;DHT22;10525;50.154;8.198;2022-11-15T05:52:03;9.40;99.90
20728;DHT22;10525;50.154;8.198;2022-11-15T05:54:31;9.40;99.90
20728;DHT22;10525;50.154;8.198;2022-11-15T05:56:58;9.40;99.90
20728;DHT22;10525;50.154;8.198;2022-11-15T05:59:28;9.40;99.90
20728;DHT22;10525;50.154;8.198;2022-11-15T06:01:55;9.50;99.90
20728;DHT22;10525;50.154;8.198;2022-11-15T06:04:22;9.50;99.90
20728;DHT22;10525;50.154;8.198;2022-11-15T06:06:49;9.50;99.90
20728;DHT22;10525;50.154;8.198;2022-11-15T06:09:15;9.50;99.90
20728;DHT22;10525;50.154;8.198;2022-11-15T06:11:42;9.60;99.90
20728;DHT22;10525;50.154;8.198;2022-11-15T06:14:09;9.60;99.90
20728;DHT22;10525;50.154;8.198;2022-11-15T06:16:37;9.70;99.90
20728;DHT22;10525;50.154;8.198;2022-11-15T06:19:05;9.70;99.90
20728;DHT22;10525;50.154;8.198;2022-11-15T06:21:32;9.60;99.90
20728;DHT22;10525;50.154;8.198;2022-11-15T06:23:59;9.60;99.90
20728;DHT22;10525;50.154;8.198;2022-11-15T06:26:26;9.50;99.90
20728;DHT22;10525;50.154;8.198;2022-11-15T06:28:53;9.50;99.90
20728;DHT22;10525;50.154;8.198;2022-11-15T06:31:20;9.50;99.90
20728;DHT22;10525;50.154;8.198;2022-11-15T06:33:48;9.40;99.90
20728;DHT22;10525;50.154;8.198;2022-11-15T06:36:15;9.30;99.90
20728;DHT22;10525;50.154;8.198;2022-11-15T06:38:42;9.20;99.90
20728;DHT22;10525;50.154;8.198;2022-11-15T06:41:10;9.20;99.90
20728;DHT22;10525;50.154;8.198;2022-11-15T06:43:38;9.20;99.90
20728;DHT22;10525;50.154;8.198;2022-11-15T06:46:05;9.20;99.90
20728;DHT22;10525;50.154;8.198;2022-11-15T06:48:33;9.20;99.90
20728;DHT22;10525;50.154;8.198;2022-11-15T06:51:02;9.30;99.90
20728;DHT22;10525;50.154;8.198;2022-11-15T06:53:30;9.20;99.90
20728;DHT22;10525;50.154;8.198;2022-11-15T06:55:59;9.30;99.90
20728;DHT22;10525;50.154;8.198;2022-11-15T06:58:26;9.20;99.90
20728;DHT22;10525;50.154;8.198;2022-11-15T07:00:53;9.20;99.90
20728;DHT22;10525;50.154;8.198;2022-11-15T07:03:20;9.30;99.90
20728;DHT22;10525;50.154;8.198;2022-11-15T07:05:51;9.30;99.90
20728;DHT22;10525;50.154;8.198;2022-11-15T07:08:21;9.20;99.90
20728;DHT22;10525;50.154;8.198;2022-11-15T07:10:47;9.10;99.90
20728;DHT22;10525;50.154;8.198;2022-11-15T07:13:14;9.20;99.90
20728;DHT22;10525;50.154;8.198;2022-11-15T07:15:41;9.20;99.90
20728;DHT22;10525;50.154;8.198;2022-11-15T07:18:08;9.20;99.90
20728;DHT22;10525;50.154;8.198;2022-11-15T07:20:35;9.30;99.90
20728;DHT22;10525;50.154;8.198;2022-11-15T07:23:02;9.30;99.90
20728;DHT22;10525;50.154;8.198;2022-11-15T07:25:31;9.40;99.90
20728;DHT22;10525;50.154;8.198;2022-11-15T07:27:58;9.50;99.90
20728;DHT22;10525;50.154;8.198;2022-11-15T07:30:26;9.60;99.90
20728;DHT22;10525;50.154;8.198;2022-11-15T07:32:53;9.60;99.90
20728;DHT22;10525;50.154;8.198;2022-11-15T07:35:20;9.60;99.90
20728;DHT22;10525;50.154;8.198;2022-11-15T07:37:53;9.70;99.90
20728;DHT22;10525;50.154;8.198;2022-11-15T07:40:20;9.80;99.90
20728;DHT22;10525;50.154;8.198;2022-11-15T07:42:48;9.80;99.90
20728;DHT22;10525;50.154;8.198;2022-11-15T07:45:22;9.90;99.90
20728;DHT22;10525;50.154;8.198;2022-11-15T07:47:51;9.90;99.90
20728;DHT22;10525;50.154;8.198;2022-11-15T07:50:18;10.00;99.90
20728;DHT22;10525;50.154;8.198;2022-11-15T07:52:46;10.00;99.90
20728;DHT22;10525;50.154;8.198;2022-11-15T07:55:13;10.10;99.90
20728;DHT22;10525;50.154;8.198;2022-11-15T07:57:40;10.20;99.90
20728;DHT22;10525;50.154;8.198;2022-11-15T08:00:09;10.20;99.90
20728;DHT22;10525;50.154;8.198;2022-11-15T08:02:36;10.20;99.90
20728;DHT22;10525;50.154;8.198;2022-11-15T08:05:03;10.20;99.90
20728;DHT22;10525;50.154;8.198;2022-11-15T08:07:30;10.20;99.90
20728;DHT22;10525;50.154;8.198;2022-11-15T08:09:57;10.30;99.90
20728;DHT22;10525;50.154;8.198;2022-11-15T08:12:26;10.40;99.90
20728;DHT22;10525;50.154;8.198;2022-11-15T08:14:54;10.40;99.90
20728;DHT22;10525;50.154;8.198;2022-11-15T08:17:22;10.40;99.90
20728;DHT22;10525;50.154;8.198;2022-11-15T08:19:49;10.50;99.90
20728;DHT22;10525;50.154;8.198;2022-11-15T08:22:17;10.50;99.90
20728;DHT22;10525;50.154;8.198;2022-11-15T08:24:44;10.50;99.90
20728;DHT22;10525;50.154;8.198;2022-11-15T08:27:11;10.60;99.90
20728;DHT22;10525;50.154;8.198;2022-11-15T08:29:42;10.60;99.90
20728;DHT22;10525;50.154;8.198;2022-11-15T08:32:08;10.70;99.90
20728;DHT22;10525;50.154;8.198;2022-11-15T08:34:38;10.70;99.90
20728;DHT22;10525;50.154;8.198;2022-11-15T08:37:05;10.60;99.90
20728;DHT22;10525;50.154;8.198;2022-11-15T08:39:32;10.70;99.90
20728;DHT22;10525;50.154;8.198;2022-11-15T08:41:59;10.70;99.90
20728;DHT22;10525;50.154;8.198;2022-11-15T08:44:25;10.70;99.90
20728;DHT22;10525;50.154;8.198;2022-11-15T08:46:52;10.70;99.90
20728;DHT22;10525;50.154;8.198;2022-11-15T08:49:19;10.70;99.90
20728;DHT22;10525;50.154;8.198;2022-11-15T08:51:47;10.70;99.90
20728;DHT22;10525;50.154;8.198;2022-11-15T08:54:13;10.80;99.90
20728;DHT22;10525;50.154;8.198;2022-11-15T08:56:40;10.80;99.90
20728;DHT22;10525;50.154;8.198;2022-11-15T08:59:07;10.90;99.90
20728;DHT22;10525;50.154;8.198;2022-11-15T09:01:34;11.00;99.90
20728;DHT22;10525;50.154;8.198;2022-11-15T09:04:00;11.00;99.90
20728;DHT22;10525;50.154;8.198;2022-11-15T09:06:27;11.10;99.90
20728;DHT22;10525;50.154;8.198;2022-11-15T09:08:56;11.20;99.90
20728;DHT22;10525;50.154;8.198;2022-11-15T09:11:22;11.20;99.90
20728;DHT22;10525;50.154;8.198;2022-11-15T09:13:49;11.20;99.90
20728;DHT22;10525;50.154;8.198;2022-11-15T09:16:17;11.10;99.90
20728;DHT22;10525;50.154;8.198;2022-11-15T09:18:44;11.20;99.90
20728;DHT22;10525;50.154;8.198;2022-11-15T09:21:11;11.20;99.90
20728;DHT22;10525;50.154;8.198;2022-11-15T09:23:37;11.40;99.90
20728;DHT22;10525;50.154;8.198;2022-11-15T09:26:06;11.50;99.90
20728;DHT22;10525;50.154;8.198;2022-11-15T09:28:33;11.60;99.90
20728;DHT22;10525;50.154;8.198;2022-11-15T09:31:02;11.70;99.90
20728;DHT22;10525;50.154;8.198;2022-11-15T09:33:29;11.80;99.90
20728;DHT22;10525;50.154;8.198;2022-11-15T09:36:00;11.90;99.90
20728;DHT22;10525;50.154;8.198;2022-11-15T09:38:27;11.90;99.90
20728;DHT22;10525;50.154;8.198;2022-11-15T09:41:13;11.90;99.90
20728;DHT22;10525;50.154;8.198;2022-11-15T09:43:56;11.80;99.90
20728;DHT22;10525;50.154;8.198;2022-11-15T09:46:34;12.00;99.90
20728;DHT22;10525;50.154;8.198;2022-11-15T09:49:04;12.00;99.90
20728;DHT22;10525;50.154;8.198;2022-11-15T09:51:34;11.90;99.90
20728;DHT22;10525;50.154;8.198;2022-11-15T09:54:05;11.90;99.90
20728;DHT22;10525;50.154;8.198;2022-11-15T09:56:39;12.00;99.90
20728;DHT22;10525;50.154;8.198;2022-11-15T09:59:17;12.00;99.90
20728;DHT22;10525;50.154;8.198;2022-11-15T10:01:56;12.00;99.90
20728;DHT22;10525;50.154;8.198;2022-11-15T10:04:28;12.00;99.90
20728;DHT22;10525;50.154;8.198;2022-11-15T10:07:01;12.00;99.90
20728;DHT22;10525;50.154;8.198;2022-11-15T10:09:33;12.10;99.90
20728;DHT22;10525;50.154;8.198;2022-11-15T10:12:04;12.10;99.90
20728;DHT22;10525;50.154;8.198;2022-11-15T10:14:31;12.10;99.90
20728;DHT22;10525;50.154;8.198;2022-11-15T10:17:21;12.00;99.90
20728;DHT22;10525;50.154;8.198;2022-11-15T10:20:03;12.00;99.90
20728;DHT22;10525;50.154;8.198;2022-11-15T10:22:37;12.10;99.90
20728;DHT22;10525;50.154;8.198;2022-11-15T10:25:17;12.20;99.90
20728;DHT22;10525;50.154;8.198;2022-11-15T10:27:52;12.30;99.90
20728;DHT22;10525;50.154;8.198;2022-11-15T10:30:19;12.40;99.90
20728;DHT22;10525;50.154;8.198;2022-11-15T10:32:47;12.40;99.90
20728;DHT22;10525;50.154;8.198;2022-11-15T10:35:20;12.50;99.90
20728;DHT22;10525;50.154;8.198;2022-11-15T10:37:47;12.40;99.90
20728;DHT22;10525;50.154;8.198;2022-11-15T10:40:17;12.30;99.90
20728;DHT22;10525;50.154;8.198;2022-11-15T10:42:46;12.40;99.90
20728;DHT22;10525;50.154;8.198;2022-11-15T10:45:27;12.40;99.90
20728;DHT22;10525;50.154;8.198;2022-11-15T10:48:20;12.40;99.90
20728;DHT22;10525;50.154;8.198;2022-11-15T10:50:49;12.70;99.90
20728;DHT22;10525;50.154;8.198;2022-11-15T10:53:21;12.80;99.90
20728;DHT22;10525;50.154;8.198;2022-11-15T10:55:51;12.70;99.90
20728;DHT22;10525;50.154;8.198;2022-11-15T10:58:33;12.70;99.90
20728;DHT22;10525;50.154;8.198;2022-11-15T11:01:13;12.50;99.90
20728;DHT22;10525;50.154;8.198;2022-11-15T11:03:41;12.50;99.90
20728;DHT22;10525;50.154;8.198;2022-11-15T11:06:11;12.60;99.90
20728;DHT22;10525;50.154;8.198;2022-11-15T11:08:38;12.50;99.90
20728;DHT22;10525;50.154;8.198;2022-11-15T11:11:07;12.50;99.90
20728;DHT22;10525;50.154;8.198;2022-11-15T11:13:37;12.60;99.90
20728;DHT22;10525;50.154;8.198;2022-11-15T11:16:17;12.70;99.90
20728;DHT22;10525;50.154;8.198;2022-11-15T11:18:51;12.80;99.90
20728;DHT22;10525;50.154;8.198;2022-11-15T11:21:25;12.90;99.90
20728;DHT22;10525;50.154;8.198;2022-11-15T11:23:56;12.90;99.90
20728;DHT22;10525;50.154;8.198;2022-11-15T11:26:35;13.00;99.90
20728;DHT22;10525;50.154;8.198;2022-11-15T11:29:16;13.00;99.90
20728;DHT22;10525;50.154;8.198;2022-11-15T11:31:50;13.10;99.90
20728;DHT22;10525;50.154;8.198;2022-11-15T11:34:31;13.00;99.90
20728;DHT22;10525;50.154;8.198;2022-11-15T11:37:04;12.80;99.90
20728;DHT22;10525;50.154;8.198;2022-11-15T11:39:51;12.80;99.90
20728;DHT22;10525;50.154;8.198;2022-11-15T11:42:26;12.80;99.90
20728;DHT22;10525;50.154;8.198;2022-11-15T11:45:05;12.90;99.90
20728;DHT22;10525;50.154;8.198;2022-11-15T11:47:39;12.70;99.90
20728;DHT22;10525;50.154;8.198;2022-11-15T11:50:13;12.70;99.90
20728;DHT22;10525;50.154;8.198;2022-11-15T11:52:44;12.80;99.90
20728;DHT22;10525;50.154;8.198;2022-11-15T11:55:21;12.90;99.90
20728;DHT22;10525;50.154;8.198;2022-11-15T11:58:03;12.80;99.90
20728;DHT22;10525;50.154;8.198;2022-11-15T12:00:35;12.70;99.90
20728;DHT22;10525;50.154;8.198;2022-11-15T12:03:07;12.70;99.90
20728;DHT22;10525;50.154;8.198;2022-11-15T12:05:39;12.70;99.90
20728;DHT22;10525;50.154;8.198;2022-11-15T12:08:20;12.70;99.90
20728;DHT22;10525;50.154;8.198;2022-11-15T12:10:53;12.50;99.90
20728;DHT22;10525;50.154;8.198;2022-11-15T12:13:26;12.30;99.90
20728;DHT22;10525;50.154;8.198;2022-11-15T12:15:58;12.20;99.90
20728;DHT22;10525;50.154;8.198;2022-11-15T12:18:28;12.30;99.90
20728;DHT22;10525;50.154;8.198;2022-11-15T12:20:58;12.40;99.90
20728;DHT22;10525;50.154;8.198;2022-11-15T12:23:28;12.50;99.90
20728;DHT22;10525;50.154;8.198;2022-11-15T12:25:59;12.50;99.90
20728;DHT22;10525;50.154;8.198;2022-11-15T12:28:34;12.60;99.90
20728;DHT22;10525;50.154;8.198;2022-11-15T12:31:05;12.50;99.90
20728;DHT22;10525;50.154;8.198;2022-11-15T12:33:36;12.40;99.90
20728;DHT22;10525;50.154;8.198;2022-11-15T12:36:05;12.40;99.90
20728;DHT22;10525;50.154;8.198;2022-11-15T12:38:52;12.20;99.90
20728;DHT22;10525;50.154;8.198;2022-11-15T12:41:21;12.30;99.90
20728;DHT22;10525;50.154;8.198;2022-11-15T12:43:48;12.40;99.90
20728;DHT22;10525;50.154;8.198;2022-11-15T12:46:59;12.40;99.90
20728;DHT22;10525;50.154;8.198;2022-11-15T12:49:46;12.40;99.90
20728;DHT22;10525;50.154;8.198;2022-11-15T12:52:13;12.30;99.90
20728;DHT22;10525;50.154;8.198;2022-11-15T12:55:29;12.40;99.90
20728;DHT22;10525;50.154;8.198;2022-11-15T12:58:38;12.40;99.90
20728;DHT22;10525;50.154;8.198;2022-11-15T13:01:06;12.40;99.90
20728;DHT22;10525;50.154;8.198;2022-11-15T13:03:35;12.40;99.90
20728;DHT22;10525;50.154;8.198;2022-11-15T13:06:05;12.30;99.90
20728;DHT22;10525;50.154;8.198;2022-11-15T13:08:50;12.30;99.90
20728;DHT22;10525;50.154;8.198;2022-11-15T13:11:46;12.40;99.90
20728;DHT22;10525;50.154;8.198;2022-11-15T13:14:39;12.50;99.90
20728;DHT22;10525;50.154;8.198;2022-11-15T13:17:23;12.40;99.90
20728;DHT22;10525;50.154;8.198;2022-11-15T13:19:58;12.40;99.90
20728;DHT22;10525;50.154;8.198;2022-11-15T13:22:25;12.30;99.90
20728;DHT22;10525;50.154;8.198;2022-11-15T13:25:19;12.30;99.90
20728;DHT22;10525;50.154;8.198;2022-11-15T13:27:49;12.30;99.90
20728;DHT22;10525;50.154;8.198;2022-11-15T13:30:20;12.30;99.90
20728;DHT22;10525;50.154;8.198;2022-11-15T13:32:48;12.20;99.90
20728;DHT22;10525;50.154;8.198;2022-11-15T13:35:22;12.10;99.90
20728;DHT22;10525;50.154;8.198;2022-11-15T13:37:49;12.10;99.90
20728;DHT22;10525;50.154;8.198;2022-11-15T13:40:23;12.00;99.90
20728;DHT22;10525;50.154;8.198;2022-11-15T13:42:52;12.00;99.90
20728;DHT22;10525;50.154;8.198;2022-11-15T13:45:20;12.00;99.90
20728;DHT22;10525;50.154;8.198;2022-11-15T13:47:51;12.00;99.90
20728;DHT22;10525;50.154;8.198;2022-11-15T13:50:21;11.90;99.90
20728;DHT22;10525;50.154;8.198;2022-11-15T13:52:49;11.80;99.90
20728;DHT22;10525;50.154;8.198;2022-11-15T13:55:18;11.80;99.90
20728;DHT22;10525;50.154;8.198;2022-11-15T13:57:48;11.70;99.90
20728;DHT22;10525;50.154;8.198;2022-11-15T14:00:27;11.60;99.90
20728;DHT22;10525;50.154;8.198;2022-11-15T14:02:56;11.60;99.90
20728;DHT22;10525;50.154;8.198;2022-11-15T14:05:25;11.50;99.90
20728;DHT22;10525;50.154;8.198;2022-11-15T14:07:55;11.50;99.90
20728;DHT22;10525;50.154;8.198;2022-11-15T14:10:28;11.50;99.90
20728;DHT22;10525;50.154;8.198;2022-11-15T14:12:56;11.40;99.90
20728;DHT22;10525;50.154;8.198;2022-11-15T14:15:30;11.30;99.90
20728;DHT22;10525;50.154;8.198;2022-11-15T14:17:57;11.20;99.90
20728;DHT22;10525;50.154;8.198;2022-11-15T14:20:30;11.10;99.90
20728;DHT22;10525;50.154;8.198;2022-11-15T14:22:59;11.10;99.90
20728;DHT22;10525;50.154;8.198;2022-11-15T14:25:27;11.00;99.90
20728;DHT22;10525;50.154;8.198;2022-11-15T14:28:14;11.00;99.90
20728;DHT22;10525;50.154;8.198;2022-11-15T14:30:43;10.90;99.90
20728;DHT22;10525;50.154;8.198;2022-11-15T14:33:21;10.90;99.90
20728;DHT22;10525;50.154;8.198;2022-11-15T14:35:50;10.90;99.90
20728;DHT22;10525;50.154;8.198;2022-11-15T14:38:17;10.90;99.90
20728;DHT22;10525;50.154;8.198;2022-11-15T14:40:44;11.00;99.90
20728;DHT22;10525;50.154;8.198;2022-11-15T14:43:12;10.90;99.90
20728;DHT22;10525;50.154;8.198;2022-11-15T14:45:39;10.90;99.90
20728;DHT22;10525;50.154;8.198;2022-11-15T14:48:05;11.00;99.90
20728;DHT22;10525;50.154;8.198;2022-11-15T14:50:33;10.90;99.90
20728;DHT22;10525;50.154;8.198;2022-11-15T14:53:01;10.80;99.90
20728;DHT22;10525;50.154;8.198;2022-11-15T14:55:30;10.90;99.90
20728;DHT22;10525;50.154;8.198;2022-11-15T14:57:58;10.80;99.90
20728;DHT22;10525;50.154;8.198;2022-11-15T15:00:25;10.90;99.90
20728;DHT22;10525;50.154;8.198;2022-11-15T15:02:53;10.90;99.90
20728;DHT22;10525;50.154;8.198;2022-11-15T15:05:21;10.90;99.90
20728;DHT22;10525;50.154;8.198;2022-11-15T15:07:49;10.80;99.90
20728;DHT22;10525;50.154;8.198;2022-11-15T15:10:18;10.80;99.90
20728;DHT22;10525;50.154;8.198;2022-11-15T15:12:45;10.80;99.90
20728;DHT22;10525;50.154;8.198;2022-11-15T15:15:14;10.80;99.90
20728;DHT22;10525;50.154;8.198;2022-11-15T15:17:41;10.80;99.90
20728;DHT22;10525;50.154;8.198;2022-11-15T15:20:08;10.80;99.90
20728;DHT22;10525;50.154;8.198;2022-11-15T15:22:35;10.70;99.90
20728;DHT22;10525;50.154;8.198;2022-11-15T15:25:07;10.70;99.90
20728;DHT22;10525;50.154;8.198;2022-11-15T15:27:43;10.80;99.90
20728;DHT22;10525;50.154;8.198;2022-11-15T15:30:11;10.70;99.90
20728;DHT22;10525;50.154;8.198;2022-11-15T15:32:37;10.70;99.90
20728;DHT22;10525;50.154;8.198;2022-11-15T15:35:04;10.70;99.90
20728;DHT22;10525;50.154;8.198;2022-11-15T15:37:32;10.70;99.90
20728;DHT22;10525;50.154;8.198;2022-11-15T15:40:00;10.70;99.90
20728;DHT22;10525;50.154;8.198;2022-11-15T15:42:26;10.70;99.90
20728;DHT22;10525;50.154;8.198;2022-11-15T15:44:54;10.70;99.90
20728;DHT22;10525;50.154;8.198;2022-11-15T15:47:22;10.60;99.90
20728;DHT22;10525;50.154;8.198;2022-11-15T15:49:50;10.60;99.90
20728;DHT22;10525;50.154;8.198;2022-11-15T15:52:17;10.60;99.90
20728;DHT22;10525;50.154;8.198;2022-11-15T15:54:47;10.60;99.90
20728;DHT22;10525;50.154;8.198;2022-11-15T15:57:14;10.70;99.90
20728;DHT22;10525;50.154;8.198;2022-11-15T15:59:41;10.60;99.90
20728;DHT22;10525;50.154;8.198;2022-11-15T16:02:11;10.70;99.90